Time;durP1;ratioP1;P1;durP2;ratioP2;P2;SDS_P1;SDS_P2;PMS_P1;PMS_P2;Temp;Humidity;BMP_temperature;BMP_pressure;BME280_temperature;BME280_humidity;BME280_pressure;Samples;Min_cycle;Max_cycle;Signal;HPM_P1;HPM_P2
2023/06/06 00:01:29;;;;;;;0.73;0.50;;;19.20;99.90;;;;;;5094933;28;20456;-58
2023/06/06 00:03:57;;;;;;;1.00;0.70;;;19.20;99.90;;;;;;5094104;28;20744;-57
2023/06/06 00:06:27;;;;;;;2.30;0.70;;;19.10;99.90;;;;;;5094754;28;20422;-58
2023/06/06 00:08:54;;;;;;;1.20;0.60;;;19.00;99.90;;;;;;5094459;28;20469;-58
2023/06/06 00:11:21;;;;;;;1.40;0.60;;;18.90;99.90;;;;;;5095113;28;20788;-58
2023/06/06 00:13:49;;;;;;;0.90;0.67;;;18.90;99.90;;;;;;5093744;28;20426;-58
2023/06/06 00:16:17;;;;;;;1.20;0.60;;;19.00;99.90;;;;;;5094919;28;20421;-58
2023/06/06 00:18:45;;;;;;;0.90;0.60;;;19.10;99.90;;;;;;5093309;28;20429;-58
2023/06/06 00:21:13;;;;;;;0.88;0.60;;;19.00;99.90;;;;;;5094429;28;20456;-59
2023/06/06 00:23:40;;;;;;;1.30;0.60;;;19.00;99.90;;;;;;5093838;28;20421;-59
2023/06/06 00:26:08;;;;;;;0.95;0.60;;;19.00;99.90;;;;;;5095159;28;20793;-58
2023/06/06 00:28:35;;;;;;;0.90;0.50;;;18.90;99.90;;;;;;5095324;28;20714;-58
2023/06/06 00:31:02;;;;;;;0.80;0.60;;;18.90;99.90;;;;;;5094507;28;20418;-58
2023/06/06 00:33:29;;;;;;;0.80;0.60;;;18.90;99.90;;;;;;5098780;28;20428;-59
2023/06/06 00:35:57;;;;;;;1.10;0.60;;;18.90;99.90;;;;;;5098765;28;20430;-59
2023/06/06 00:38:25;;;;;;;1.10;0.70;;;18.80;99.90;;;;;;5098976;28;20862;-58
2023/06/06 00:40:52;;;;;;;1.00;0.70;;;18.80;99.90;;;;;;5098612;28;20430;-58
2023/06/06 00:43:19;;;;;;;0.80;0.60;;;18.90;99.90;;;;;;5097833;28;20418;-58
2023/06/06 00:45:46;;;;;;;1.10;0.70;;;18.80;99.90;;;;;;5098841;28;20842;-57
2023/06/06 00:48:13;;;;;;;0.90;0.70;;;18.70;99.90;;;;;;5099067;28;20433;-58
2023/06/06 00:50:42;;;;;;;1.10;0.60;;;18.60;99.90;;;;;;5098553;28;20418;-57
2023/06/06 00:53:10;;;;;;;1.27;0.70;;;18.50;99.90;;;;;;5098764;28;20861;-58
2023/06/06 00:55:41;;;;;;;1.20;0.70;;;18.50;99.90;;;;;;5098800;28;20429;-58
2023/06/06 00:58:09;;;;;;;0.90;0.70;;;18.50;99.90;;;;;;5095901;28;20787;-58
2023/06/06 01:00:38;;;;;;;0.80;0.60;;;18.40;99.90;;;;;;5097816;28;20433;-59
2023/06/06 01:03:09;;;;;;;1.20;0.60;;;18.30;99.90;;;;;;5098683;28;20737;-59
2023/06/06 01:05:36;;;;;;;1.00;0.70;;;18.20;99.90;;;;;;5097013;28;20426;-58
2023/06/06 01:08:04;;;;;;;1.00;0.70;;;18.20;99.90;;;;;;5096293;28;20735;-59
2023/06/06 01:10:34;;;;;;;1.67;0.70;;;18.20;99.90;;;;;;5095165;28;20554;-59
2023/06/06 01:13:13;;;;;;;0.90;0.60;;;18.30;99.90;;;;;;5094027;28;20437;-58
2023/06/06 01:15:45;;;;;;;1.00;0.60;;;18.40;99.90;;;;;;5093969;28;20452;-58
2023/06/06 01:18:13;;;;;;;0.90;0.70;;;18.40;99.90;;;;;;5094309;28;20820;-58
2023/06/06 01:20:41;;;;;;;1.20;0.80;;;18.40;99.90;;;;;;5096667;28;20478;-58
2023/06/06 01:23:11;;;;;;;0.90;0.73;;;18.30;99.90;;;;;;5097273;28;20422;-58
2023/06/06 01:25:40;;;;;;;1.00;0.70;;;18.00;99.90;;;;;;5097829;28;20429;-58
2023/06/06 01:28:12;;;;;;;1.10;0.80;;;17.90;99.90;;;;;;5098084;28;20433;-58
2023/06/06 01:30:41;;;;;;;1.10;0.70;;;17.70;99.90;;;;;;5097793;28;20779;-58
2023/06/06 01:33:16;;;;;;;1.40;0.70;;;17.60;99.90;;;;;;5097471;28;20433;-58
2023/06/06 01:35:52;;;;;;;1.00;0.70;;;17.60;99.90;;;;;;5097640;28;20429;-59
2023/06/06 01:38:24;;;;;;;0.90;0.70;;;17.60;99.90;;;;;;5097884;28;20541;-58
2023/06/06 01:40:54;;;;;;;1.70;0.80;;;17.60;99.90;;;;;;5096410;28;20416;-59
2023/06/06 01:43:23;;;;;;;1.10;0.80;;;17.60;99.90;;;;;;5095184;28;20772;-57
2023/06/06 01:45:51;;;;;;;1.30;0.80;;;17.60;99.90;;;;;;5095875;28;20432;-58
2023/06/06 01:48:19;;;;;;;1.00;0.70;;;17.50;99.90;;;;;;5095963;28;20726;-58
2023/06/06 01:50:47;;;;;;;1.10;0.80;;;17.50;99.90;;;;;;5096456;28;20487;-57
2023/06/06 01:53:14;;;;;;;1.60;0.70;;;17.50;99.90;;;;;;5097433;28;20418;-58
2023/06/06 01:55:42;;;;;;;0.80;0.60;;;17.40;99.90;;;;;;5097920;28;20452;-57
2023/06/06 01:58:10;;;;;;;1.10;0.70;;;17.40;99.90;;;;;;5097829;28;20430;-58
2023/06/06 02:00:37;;;;;;;1.20;0.70;;;17.40;99.90;;;;;;5097223;28;20711;-56
2023/06/06 02:03:04;;;;;;;1.00;0.70;;;17.40;99.90;;;;;;5097682;28;20491;-57
2023/06/06 02:05:31;;;;;;;1.20;0.70;;;17.40;99.90;;;;;;5096722;28;20729;-58
2023/06/06 02:07:59;;;;;;;1.00;0.70;;;17.40;99.90;;;;;;5096964;28;20467;-57
2023/06/06 02:10:26;;;;;;;0.90;0.70;;;17.40;99.90;;;;;;5097188;28;20495;-57
2023/06/06 02:12:54;;;;;;;1.30;0.70;;;17.40;99.90;;;;;;5096943;28;20703;-58
2023/06/06 02:15:26;;;;;;;0.90;0.70;;;17.30;99.90;;;;;;5097009;28;20429;-58
2023/06/06 02:17:53;;;;;;;0.90;0.65;;;17.10;99.90;;;;;;5097143;28;20732;-58
2023/06/06 02:20:20;;;;;;;1.50;0.70;;;17.00;99.90;;;;;;5096483;28;20465;-57
2023/06/06 02:22:47;;;;;;;1.00;0.70;;;17.00;99.90;;;;;;5096763;28;20869;-58
2023/06/06 02:25:14;;;;;;;1.00;0.70;;;16.90;99.90;;;;;;5096928;28;20433;-58
2023/06/06 02:27:43;;;;;;;1.00;0.70;;;16.90;99.90;;;;;;5096837;28;20429;-57
2023/06/06 02:30:12;;;;;;;0.88;0.63;;;16.80;99.90;;;;;;5095257;28;20433;-57
2023/06/06 02:32:41;;;;;;;1.20;0.73;;;16.80;99.90;;;;;;5096550;28;20699;-58
2023/06/06 02:35:09;;;;;;;0.90;0.70;;;16.80;99.90;;;;;;5097375;28;20449;-58
2023/06/06 02:37:36;;;;;;;1.30;0.70;;;16.80;99.90;;;;;;5096752;28;20425;-56
2023/06/06 02:40:08;;;;;;;1.10;0.80;;;16.70;99.90;;;;;;5096589;28;20426;-57
2023/06/06 02:42:36;;;;;;;0.90;0.70;;;16.60;99.90;;;;;;5096386;28;20505;-57
2023/06/06 02:45:03;;;;;;;1.00;0.70;;;16.60;99.90;;;;;;5095965;28;20436;-58
2023/06/06 02:47:32;;;;;;;2.00;0.70;;;16.50;99.90;;;;;;5096096;28;20898;-58
2023/06/06 02:49:59;;;;;;;1.00;0.70;;;16.50;99.90;;;;;;5096170;28;20436;-58
2023/06/06 02:52:26;;;;;;;1.70;0.70;;;16.60;99.90;;;;;;5096464;28;20422;-58
2023/06/06 02:54:53;;;;;;;1.20;0.70;;;16.50;99.90;;;;;;5096442;28;20491;-58
2023/06/06 02:57:21;;;;;;;0.90;0.70;;;16.50;99.90;;;;;;5095991;28;20430;-57
2023/06/06 02:59:48;;;;;;;1.20;0.70;;;16.50;99.90;;;;;;5095353;28;20469;-59
2023/06/06 03:02:16;;;;;;;1.17;0.80;;;16.50;99.90;;;;;;5095256;28;20465;-58
2023/06/06 03:04:45;;;;;;;1.00;0.80;;;16.50;99.90;;;;;;5096454;28;20524;-58
2023/06/06 03:07:13;;;;;;;0.90;0.70;;;16.50;99.90;;;;;;5099457;28;20503;-58
2023/06/06 03:09:40;;;;;;;1.45;0.70;;;16.50;99.90;;;;;;5107576;28;20456;-57
2023/06/06 03:12:08;;;;;;;1.40;0.70;;;16.50;99.90;;;;;;5116425;28;20522;-57
2023/06/06 03:14:35;;;;;;;1.20;0.70;;;16.60;99.90;;;;;;5114705;28;20412;-59
2023/06/06 03:17:02;;;;;;;1.27;0.70;;;16.60;99.90;;;;;;5114685;28;20412;-58
2023/06/06 03:19:30;;;;;;;1.10;0.70;;;16.60;99.90;;;;;;5114875;28;20557;-59
2023/06/06 03:21:59;;;;;;;1.10;0.70;;;16.40;99.90;;;;;;5113953;28;20523;-58
2023/06/06 03:24:28;;;;;;;1.15;0.80;;;16.30;99.90;;;;;;5114921;28;20428;-57
2023/06/06 03:26:55;;;;;;;1.20;0.80;;;16.20;99.90;;;;;;5115758;28;20428;-57
2023/06/06 03:29:23;;;;;;;1.20;0.70;;;16.20;99.90;;;;;;5115891;28;20424;-57
2023/06/06 03:31:49;;;;;;;1.27;0.80;;;16.20;99.90;;;;;;5115796;28;20421;-58
2023/06/06 03:34:17;;;;;;;1.00;0.70;;;16.10;99.90;;;;;;5115642;28;20428;-58
2023/06/06 03:36:44;;;;;;;1.30;0.80;;;16.20;99.90;;;;;;5115297;28;20762;-58
2023/06/06 03:39:12;;;;;;;1.10;0.80;;;16.40;99.90;;;;;;5115611;28;20834;-58
2023/06/06 03:41:39;;;;;;;1.10;0.80;;;16.50;99.90;;;;;;5115810;28;20455;-59
2023/06/06 03:44:06;;;;;;;1.60;0.80;;;16.50;99.90;;;;;;5115848;28;20420;-57
2023/06/06 03:46:34;;;;;;;1.00;0.70;;;16.40;99.90;;;;;;5116110;28;20428;-58
2023/06/06 03:49:01;;;;;;;1.60;0.75;;;16.30;99.90;;;;;;5114963;28;20530;-58
2023/06/06 03:51:28;;;;;;;1.10;0.80;;;16.30;99.90;;;;;;5113779;28;20412;-58
2023/06/06 03:53:55;;;;;;;1.10;0.80;;;16.30;99.90;;;;;;5114774;28;20436;-58
2023/06/06 03:56:25;;;;;;;1.08;0.80;;;16.40;99.90;;;;;;5113914;28;20424;-58
2023/06/06 03:58:52;;;;;;;2.30;0.80;;;16.40;99.90;;;;;;5115740;28;20420;-59
2023/06/06 04:01:21;;;;;;;0.85;0.70;;;16.40;99.90;;;;;;5115402;28;20430;-55
2023/06/06 04:03:48;;;;;;;0.90;0.70;;;16.50;99.90;;;;;;5115211;28;20419;-56
2023/06/06 04:06:15;;;;;;;1.55;0.80;;;16.40;99.90;;;;;;5113299;28;20922;-56
2023/06/06 04:08:42;;;;;;;1.40;0.80;;;16.30;99.90;;;;;;5113250;28;20453;-55
2023/06/06 04:11:09;;;;;;;1.38;0.80;;;16.10;99.90;;;;;;5114901;28;20507;-56
2023/06/06 04:13:37;;;;;;;3.30;0.80;;;16.00;99.90;;;;;;5114201;28;20431;-53
2023/06/06 04:16:05;;;;;;;1.00;0.70;;;16.00;99.90;;;;;;5113839;28;20428;-56
2023/06/06 04:18:32;;;;;;;1.45;0.80;;;16.00;99.90;;;;;;5114082;28;20415;-54
2023/06/06 04:20:59;;;;;;;1.17;0.80;;;16.20;99.90;;;;;;5113904;28;20428;-50
2023/06/06 04:23:26;;;;;;;1.60;0.82;;;16.20;99.90;;;;;;5112587;28;20428;-52
2023/06/06 04:25:54;;;;;;;1.70;0.77;;;16.20;99.90;;;;;;5114722;28;20427;-54
2023/06/06 04:28:21;;;;;;;1.17;0.80;;;16.20;99.90;;;;;;5115395;28;20794;-56
2023/06/06 04:30:52;;;;;;;1.95;1.00;;;16.30;99.90;;;;;;5114181;28;20496;-52
2023/06/06 04:33:23;;;;;;;1.40;0.90;;;16.30;99.90;;;;;;5115394;28;20816;-54
2023/06/06 04:35:51;;;;;;;1.00;0.80;;;16.40;99.90;;;;;;5113508;28;20763;-55
2023/06/06 04:38:20;;;;;;;1.10;0.80;;;16.40;99.90;;;;;;5113744;28;20420;-58
2023/06/06 04:40:50;;;;;;;1.90;0.90;;;16.40;99.90;;;;;;5113555;28;20416;-55
2023/06/06 04:43:23;;;;;;;1.25;1.00;;;16.40;99.90;;;;;;5112920;28;20936;-53
2023/06/06 04:45:53;;;;;;;1.50;0.90;;;16.50;99.90;;;;;;5112984;28;20420;-57
2023/06/06 04:48:20;;;;;;;1.33;0.90;;;16.50;99.90;;;;;;5111568;28;20838;-54
2023/06/06 04:50:49;;;;;;;1.40;1.00;;;16.50;99.90;;;;;;5111313;28;20524;-56
2023/06/06 04:53:16;;;;;;;1.67;0.95;;;16.50;99.90;;;;;;5111896;28;20427;-54
2023/06/06 04:55:43;;;;;;;1.70;1.00;;;16.50;99.90;;;;;;5112344;28;20442;-54
2023/06/06 04:58:14;;;;;;;1.88;0.90;;;16.40;99.90;;;;;;5113219;28;20428;-53
2023/06/06 05:00:45;;;;;;;1.20;0.90;;;16.50;99.90;;;;;;5113455;28;20839;-55
2023/06/06 05:03:16;;;;;;;1.60;1.10;;;16.50;99.90;;;;;;5113184;28;20432;-54
2023/06/06 05:05:43;;;;;;;1.70;0.90;;;16.60;99.90;;;;;;5113185;28;20511;-58
2023/06/06 05:08:10;;;;;;;4.43;0.98;;;16.60;99.90;;;;;;5110417;28;20852;-55
2023/06/06 05:10:40;;;;;;;1.20;0.95;;;16.80;99.90;;;;;;5111288;28;20424;-56
2023/06/06 05:13:07;;;;;;;1.42;0.90;;;16.80;99.90;;;;;;5110669;28;20840;-57
2023/06/06 05:15:34;;;;;;;1.55;0.90;;;16.90;99.90;;;;;;5112331;28;20420;-54
2023/06/06 05:18:02;;;;;;;1.60;1.00;;;17.10;99.90;;;;;;5111894;28;20432;-54
2023/06/06 05:20:30;;;;;;;1.70;1.10;;;17.10;99.90;;;;;;5114838;28;21111;-54
2023/06/06 05:22:57;;;;;;;1.40;1.10;;;17.10;99.90;;;;;;5114299;28;20912;-59
2023/06/06 05:25:24;;;;;;;1.90;0.90;;;17.00;99.90;;;;;;5114546;28;20489;-51
2023/06/06 05:27:52;;;;;;;1.40;1.00;;;17.00;99.90;;;;;;5115146;28;20435;-58
2023/06/06 05:30:19;;;;;;;1.15;0.90;;;16.90;99.90;;;;;;5116075;28;20424;-54
2023/06/06 05:32:46;;;;;;;1.90;1.00;;;17.10;99.90;;;;;;5114783;28;20424;-50
2023/06/06 05:35:13;;;;;;;2.20;0.90;;;17.10;99.90;;;;;;5114235;28;20751;-52
2023/06/06 05:37:44;;;;;;;1.77;0.90;;;17.30;99.90;;;;;;5114017;28;20431;-55
2023/06/06 05:40:11;;;;;;;1.52;0.95;;;17.60;99.90;;;;;;5114391;28;20443;-54
2023/06/06 05:42:39;;;;;;;1.38;0.90;;;17.70;99.90;;;;;;5112274;28;20743;-52
2023/06/06 05:45:07;;;;;;;1.60;0.90;;;17.70;99.90;;;;;;5113187;28;20420;-53
2023/06/06 05:47:34;;;;;;;1.35;0.90;;;17.60;99.90;;;;;;5113537;28;20420;-54
2023/06/06 05:50:02;;;;;;;2.20;0.98;;;17.50;99.90;;;;;;5112585;28;20416;-52
2023/06/06 05:52:29;;;;;;;1.50;0.98;;;17.70;99.90;;;;;;5114785;28;20840;-52
2023/06/06 05:55:03;;;;;;;1.48;0.90;;;17.70;99.90;;;;;;5115190;28;20499;-54
2023/06/06 05:57:30;;;;;;;2.15;1.00;;;17.90;99.90;;;;;;5113993;28;20796;-53
2023/06/06 06:00:00;;;;;;;1.73;0.90;;;18.10;99.90;;;;;;5113761;28;20416;-49
2023/06/06 06:02:28;;;;;;;1.30;0.90;;;18.20;99.90;;;;;;5114200;28;20428;-54
2023/06/06 06:04:56;;;;;;;2.20;0.90;;;18.10;99.90;;;;;;5112410;28;20451;-51
2023/06/06 06:07:23;;;;;;;1.57;0.90;;;18.00;99.90;;;;;;5111884;28;20416;-51
2023/06/06 06:09:51;;;;;;;1.90;0.90;;;17.90;99.90;;;;;;5097268;28;20873;-51
2023/06/06 06:12:19;;;;;;;1.77;0.90;;;18.10;99.90;;;;;;5109829;28;20485;-52
2023/06/06 06:14:46;;;;;;;1.60;0.90;;;18.20;99.90;;;;;;5113311;28;20428;-52
2023/06/06 06:17:13;;;;;;;1.10;0.80;;;18.40;99.90;;;;;;5113580;28;20447;-52
2023/06/06 06:19:40;;;;;;;1.10;0.90;;;18.50;99.90;;;;;;5101783;28;20780;-54
2023/06/06 06:22:07;;;;;;;1.48;0.90;;;18.70;99.90;;;;;;5091722;28;20434;-49
2023/06/06 06:24:34;;;;;;;1.70;0.90;;;18.90;99.90;;;;;;5090969;28;21058;-53
2023/06/06 06:27:01;;;;;;;1.67;0.80;;;18.90;99.90;;;;;;5091558;28;20417;-51
2023/06/06 06:29:29;;;;;;;1.10;0.90;;;18.90;99.90;;;;;;5092361;28;20413;-50
2023/06/06 06:31:56;;;;;;;1.10;0.88;;;19.00;99.90;;;;;;5093009;28;20735;-50
2023/06/06 06:34:25;;;;;;;1.10;0.90;;;19.10;99.90;;;;;;5090190;28;20423;-50
2023/06/06 06:36:52;;;;;;;1.40;0.98;;;19.10;99.90;;;;;;5091420;28;20468;-52
2023/06/06 06:39:19;;;;;;;3.35;0.80;;;19.30;99.90;;;;;;5089248;28;20438;-51
2023/06/06 06:41:47;;;;;;;1.17;0.90;;;19.40;99.90;;;;;;5101204;28;20924;-49
2023/06/06 06:44:14;;;;;;;1.60;1.00;;;19.50;99.90;;;;;;5113189;28;20766;-49
2023/06/06 06:46:42;;;;;;;1.50;0.80;;;19.60;99.90;;;;;;5111230;28;20436;-52
2023/06/06 06:49:16;;;;;;;1.60;0.90;;;19.50;99.90;;;;;;5112497;28;20419;-53
2023/06/06 06:51:43;;;;;;;1.60;0.90;;;19.60;99.90;;;;;;5103895;28;20436;-51
2023/06/06 06:54:12;;;;;;;1.55;0.98;;;19.70;99.90;;;;;;5115682;28;20416;-51
2023/06/06 06:56:41;;;;;;;1.10;0.80;;;19.80;99.90;;;;;;5112405;28;20491;-52
2023/06/06 06:59:08;;;;;;;1.05;0.90;;;19.70;99.90;;;;;;5095452;28;20425;-51
2023/06/06 07:01:37;;;;;;;1.10;0.82;;;19.50;99.90;;;;;;5092687;28;20442;-52
2023/06/06 07:04:06;;;;;;;1.50;1.30;;;19.40;99.90;;;;;;5090505;28;20517;-53
2023/06/06 07:06:33;;;;;;;1.10;0.90;;;19.40;99.90;;;;;;5090462;28;20425;-53
2023/06/06 07:09:04;;;;;;;1.90;0.90;;;19.40;99.90;;;;;;5090135;28;20473;-53
2023/06/06 07:11:31;;;;;;;1.55;1.00;;;19.60;99.90;;;;;;5104496;28;20547;-54
2023/06/06 07:13:58;;;;;;;1.40;0.93;;;19.80;99.90;;;;;;5114322;28;20412;-50
2023/06/06 07:16:25;;;;;;;1.83;0.90;;;19.90;99.90;;;;;;5093290;28;20460;-53
2023/06/06 07:18:53;;;;;;;1.20;1.00;;;19.70;99.90;;;;;;5091281;28;20513;-53
2023/06/06 07:21:21;;;;;;;1.20;0.90;;;19.70;99.90;;;;;;5107750;28;20432;-49
2023/06/06 07:23:48;;;;;;;1.58;0.80;;;19.80;99.90;;;;;;5107006;28;20432;-52
2023/06/06 07:26:17;;;;;;;1.40;0.90;;;20.00;99.90;;;;;;5111034;28;20424;-52
2023/06/06 07:28:45;;;;;;;1.25;0.80;;;20.20;99.90;;;;;;5093167;28;20524;-50
2023/06/06 07:31:12;;;;;;;1.50;0.80;;;20.40;99.90;;;;;;5090745;28;20449;-50
2023/06/06 07:33:39;;;;;;;1.20;0.80;;;20.50;99.90;;;;;;5090973;28;20788;-51
2023/06/06 07:36:07;;;;;;;1.20;0.80;;;20.70;99.90;;;;;;5089720;28;20539;-47
2023/06/06 07:38:35;;;;;;;1.52;0.93;;;20.90;99.90;;;;;;5091896;28;20852;-53
2023/06/06 07:41:03;;;;;;;1.30;0.80;;;20.90;99.90;;;;;;5095256;28;20463;-49
2023/06/06 07:43:30;;;;;;;1.42;0.90;;;21.00;99.90;;;;;;5112888;28;20528;-52
2023/06/06 07:45:57;;;;;;;1.50;0.70;;;21.10;99.90;;;;;;5111007;28;20428;-53
2023/06/06 07:48:24;;;;;;;1.00;0.80;;;20.90;99.90;;;;;;5111888;28;20438;-54
2023/06/06 07:50:51;;;;;;;1.10;0.90;;;21.10;99.90;;;;;;5109420;28;20445;-49
2023/06/06 07:53:18;;;;;;;1.30;0.80;;;21.20;99.90;;;;;;5091371;28;20425;-51
2023/06/06 07:55:47;;;;;;;2.50;0.80;;;21.30;99.90;;;;;;5089707;28;20460;-52
2023/06/06 07:58:15;;;;;;;2.00;0.80;;;21.30;99.90;;;;;;5102089;28;20861;-51
2023/06/06 08:00:44;;;;;;;1.20;0.80;;;21.30;99.90;;;;;;5089927;28;20499;-52
2023/06/06 08:03:14;;;;;;;1.27;0.80;;;21.10;99.90;;;;;;5089397;28;20500;-52
2023/06/06 08:05:41;;;;;;;0.90;0.73;;;21.30;99.90;;;;;;5089548;28;20422;-53
2023/06/06 08:08:09;;;;;;;1.10;0.80;;;21.40;99.90;;;;;;5090716;28;20895;-49
2023/06/06 08:10:36;;;;;;;1.05;0.80;;;21.40;99.90;;;;;;5090226;28;20477;-53
2023/06/06 08:13:05;;;;;;;1.50;0.70;;;21.40;99.90;;;;;;5090625;28;20444;-53
2023/06/06 08:15:31;;;;;;;0.90;0.70;;;21.50;99.90;;;;;;5090745;28;20444;-49
2023/06/06 08:17:58;;;;;;;1.00;0.80;;;21.70;99.90;;;;;;5088955;28;21235;-52
2023/06/06 08:20:26;;;;;;;1.10;0.80;;;21.80;99.90;;;;;;5090233;28;20421;-53
2023/06/06 08:22:53;;;;;;;2.30;0.70;;;21.80;99.90;;;;;;5090938;28;20425;-55
2023/06/06 08:25:20;;;;;;;1.60;0.80;;;21.80;99.90;;;;;;5090067;28;20437;-53
2023/06/06 08:27:47;;;;;;;1.10;0.80;;;21.80;99.90;;;;;;5106110;28;20528;-49
2023/06/06 08:30:15;;;;;;;1.50;0.90;;;21.80;99.90;;;;;;5104670;28;20520;-54
2023/06/06 08:32:42;;;;;;;1.00;0.80;;;21.80;99.90;;;;;;5089237;28;20747;-52
2023/06/06 08:35:10;;;;;;;1.20;0.80;;;21.90;99.90;;;;;;5107358;28;20416;-54
2023/06/06 08:37:37;;;;;;;1.00;0.80;;;21.90;99.90;;;;;;5094865;28;20442;-56
2023/06/06 08:40:05;;;;;;;1.13;0.70;;;22.00;99.90;;;;;;5091272;28;20429;-54
2023/06/06 08:42:36;;;;;;;0.90;0.70;;;22.20;99.90;;;;;;5093199;28;20475;-52
2023/06/06 08:45:05;;;;;;;1.60;0.70;;;22.10;99.90;;;;;;5092340;28;20449;-49
2023/06/06 08:47:35;;;;;;;1.17;0.80;;;22.30;99.90;;;;;;5091203;28;20425;-54
2023/06/06 08:50:04;;;;;;;1.27;0.80;;;22.50;99.90;;;;;;5090124;28;20417;-55
2023/06/06 08:52:33;;;;;;;1.10;0.80;;;22.60;99.90;;;;;;5107567;28;20470;-55
2023/06/06 08:55:01;;;;;;;1.20;0.90;;;22.70;99.90;;;;;;5114030;28;20527;-55
2023/06/06 08:57:28;;;;;;;1.15;0.90;;;22.50;99.90;;;;;;5097815;28;20713;-53
2023/06/06 08:59:55;;;;;;;1.40;0.90;;;22.30;99.90;;;;;;5112501;28;20436;-54
2023/06/06 09:02:25;;;;;;;1.00;0.80;;;22.30;99.90;;;;;;5111529;28;20758;-55
2023/06/06 09:04:53;;;;;;;2.10;0.82;;;22.50;99.90;;;;;;5114416;28;20431;-50
2023/06/06 09:07:21;;;;;;;1.10;0.70;;;22.70;99.90;;;;;;5114089;28;20426;-52
2023/06/06 09:09:50;;;;;;;1.13;0.80;;;23.00;99.90;;;;;;5109400;28;20443;-54
2023/06/06 09:12:17;;;;;;;1.33;0.80;;;23.10;99.90;;;;;;5092074;28;20539;-53
2023/06/06 09:14:44;;;;;;;1.10;0.80;;;23.30;99.90;;;;;;5093575;28;20432;-54
2023/06/06 09:17:16;;;;;;;1.20;0.80;;;23.10;99.90;;;;;;5092945;28;20418;-54
2023/06/06 09:19:46;;;;;;;1.70;0.90;;;22.90;99.90;;;;;;5091622;28;20491;-53
2023/06/06 09:22:14;;;;;;;1.90;0.80;;;22.90;99.90;;;;;;5097405;28;20968;-51
2023/06/06 09:24:44;;;;;;;1.10;0.80;;;23.00;99.90;;;;;;5106779;28;20924;-53
2023/06/06 09:27:28;;;;;;;3.72;1.77;;;23.10;99.90;;;;;;5097856;28;20715;-54
2023/06/06 09:29:55;;;;;;;2.23;1.10;;;23.10;99.90;;;;;;5106993;28;20436;-52
2023/06/06 09:32:28;;;;;;;1.20;1.00;;;23.10;99.90;;;;;;5113178;28;20532;-53
2023/06/06 09:34:55;;;;;;;1.17;0.90;;;22.90;99.90;;;;;;5115040;28;20416;-54
2023/06/06 09:37:25;;;;;;;1.10;0.90;;;23.00;99.90;;;;;;5114772;28;20866;-52
2023/06/06 09:40:13;;;;;;;1.52;0.95;;;23.10;99.90;;;;;;5109354;28;20439;-53
2023/06/06 09:42:43;;;;;;;3.70;1.10;;;23.30;99.90;;;;;;5105002;28;20878;-49
2023/06/06 09:45:15;;;;;;;1.10;0.70;;;23.70;99.90;;;;;;5096641;28;20431;-54
2023/06/06 09:47:42;;;;;;;1.60;0.85;;;23.80;99.90;;;;;;5109551;28;20440;-53
2023/06/06 09:50:10;;;;;;;3.30;0.90;;;23.70;99.90;;;;;;5109498;28;20463;-54
2023/06/06 09:52:39;;;;;;;1.00;0.80;;;23.60;99.90;;;;;;5110864;28;20436;-51
2023/06/06 09:55:07;;;;;;;1.80;0.90;;;23.10;99.90;;;;;;5096455;28;20921;-52
2023/06/06 09:57:36;;;;;;;1.40;0.90;;;23.20;99.90;;;;;;5111386;28;20872;-50
2023/06/06 10:00:07;;;;;;;1.00;0.80;;;23.40;99.90;;;;;;5110324;28;20538;-50
2023/06/06 10:02:36;;;;;;;1.00;0.80;;;23.90;99.10;;;;;;5107824;28;20433;-54
2023/06/06 10:05:04;;;;;;;1.50;0.80;;;24.00;97.20;;;;;;5090303;28;20475;-52
2023/06/06 10:07:32;;;;;;;1.00;0.80;;;24.00;97.60;;;;;;5091230;28;20475;-54
2023/06/06 10:10:01;;;;;;;2.10;0.90;;;24.30;97.20;;;;;;5100991;28;20456;-56
2023/06/06 10:12:30;;;;;;;1.00;0.80;;;24.60;95.90;;;;;;5111066;28;20428;-52
2023/06/06 10:14:57;;;;;;;1.00;0.80;;;24.60;95.00;;;;;;5092273;28;20825;-54
2023/06/06 10:17:25;;;;;;;1.70;0.90;;;24.70;95.00;;;;;;5090461;28;20718;-54
2023/06/06 10:19:54;;;;;;;1.42;0.80;;;25.10;94.50;;;;;;5089407;28;20538;-54
2023/06/06 10:22:21;;;;;;;1.30;0.80;;;25.30;93.50;;;;;;5089557;28;20437;-55
2023/06/06 10:24:49;;;;;;;1.10;0.90;;;25.50;93.00;;;;;;5089482;28;20428;-56
2023/06/06 10:27:25;;;;;;;2.00;0.90;;;25.70;90.90;;;;;;5092806;28;20421;-51
2023/06/06 10:30:01;;;;;;;1.80;0.90;;;25.70;91.10;;;;;;5096539;28;20433;-53
2023/06/06 10:32:39;;;;;;;1.30;0.77;;;25.90;90.10;;;;;;5103740;28;20437;-54
2023/06/06 10:35:09;;;;;;;1.00;0.82;;;26.00;88.60;;;;;;5090363;28;20501;-56
2023/06/06 10:37:38;;;;;;;1.17;0.90;;;26.20;87.40;;;;;;5097895;28;20454;-53
2023/06/06 10:40:08;;;;;;;0.93;0.80;;;26.30;86.90;;;;;;5093614;28;20495;-55
2023/06/06 10:42:38;;;;;;;1.20;0.80;;;26.30;86.50;;;;;;5092421;28;20469;-53
2023/06/06 10:45:07;;;;;;;1.35;0.90;;;26.50;85.40;;;;;;5090929;28;20433;-55
2023/06/06 10:47:38;;;;;;;1.10;0.80;;;26.30;84.30;;;;;;5109923;28;20481;-53
2023/06/06 10:50:19;;;;;;;1.10;0.90;;;26.60;85.00;;;;;;5111314;28;20420;-54
2023/06/06 10:52:47;;;;;;;1.10;0.82;;;26.80;82.60;;;;;;5095044;28;20695;-56
2023/06/06 10:55:18;;;;;;;1.02;0.90;;;26.90;81.20;;;;;;5107525;28;20876;-64
2023/06/06 10:58:04;;;;;;;2.20;0.85;;;27.10;81.20;;;;;;5091630;28;20429;-64
2023/06/06 11:00:33;;;;;;;2.25;0.90;;;27.30;79.10;;;;;;5089558;28;20956;-61
2023/06/06 11:03:05;;;;;;;2.00;0.77;;;27.30;77.50;;;;;;5088962;28;20535;-60
2023/06/06 11:05:32;;;;;;;0.90;0.80;;;27.30;77.40;;;;;;5089226;28;20425;-60
2023/06/06 11:08:00;;;;;;;2.10;0.85;;;27.60;76.10;;;;;;5090629;28;20436;-63
2023/06/06 11:10:28;;;;;;;1.20;0.90;;;27.40;73.10;;;;;;5091376;28;20709;-63
2023/06/06 11:12:56;;;;;;;1.50;1.10;;;27.40;71.10;;;;;;5091401;28;20718;-63
2023/06/06 11:15:28;;;;;;;1.10;0.80;;;27.10;72.60;;;;;;5089582;28;20519;-65
2023/06/06 11:18:01;;;;;;;1.10;0.80;;;27.10;74.80;;;;;;5091791;28;20545;-62
2023/06/06 11:20:29;;;;;;;1.00;0.80;;;27.30;71.80;;;;;;5089249;28;20446;-62
2023/06/06 11:23:01;;;;;;;1.40;0.80;;;28.00;68.30;;;;;;5088547;28;20441;-62
2023/06/06 11:25:30;;;;;;;1.67;0.90;;;28.50;66.30;;;;;;5087797;28;20430;-64
2023/06/06 11:27:59;;;;;;;1.30;0.90;;;29.00;62.10;;;;;;5089543;28;20512;-58
2023/06/06 11:30:31;;;;;;;1.10;0.80;;;28.70;60.00;;;;;;5091630;28;20426;-58
2023/06/06 11:32:58;;;;;;;1.50;0.90;;;28.40;60.80;;;;;;5090058;28;21039;-58
2023/06/06 11:35:28;;;;;;;1.00;0.82;;;28.60;59.50;;;;;;5089054;28;20864;-58
2023/06/06 11:37:55;;;;;;;1.10;0.90;;;28.40;60.40;;;;;;5088418;28;20422;-58
2023/06/06 11:40:25;;;;;;;1.30;0.80;;;28.60;61.70;;;;;;5099768;28;20827;-58
2023/06/06 11:42:52;;;;;;;1.20;0.80;;;28.50;58.50;;;;;;5109650;28;20424;-58
2023/06/06 11:45:21;;;;;;;1.20;0.90;;;28.20;58.30;;;;;;5096226;28;20432;-58
2023/06/06 11:47:50;;;;;;;1.00;0.80;;;28.30;57.30;;;;;;5110050;28;20428;-58
2023/06/06 11:50:27;;;;;;;0.98;0.73;;;28.40;57.30;;;;;;5101525;28;20432;-58
2023/06/06 11:52:55;;;;;;;1.20;0.70;;;28.70;54.00;;;;;;5100554;28;20438;-57
2023/06/06 11:55:36;;;;;;;1.48;0.80;;;29.10;53.60;;;;;;5095443;28;20452;-56
2023/06/06 11:58:04;;;;;;;1.10;0.80;;;29.10;53.20;;;;;;5091490;28;20432;-57
2023/06/06 12:00:33;;;;;;;1.80;0.87;;;28.80;52.80;;;;;;5100967;28;20848;-57
2023/06/06 12:03:01;;;;;;;0.90;0.77;;;29.10;52.80;;;;;;5101605;28;20856;-59
2023/06/06 12:05:28;;;;;;;0.80;0.70;;;29.20;50.50;;;;;;5106208;28;20469;-58
2023/06/06 12:07:58;;;;;;;1.02;0.60;;;29.10;50.20;;;;;;5109468;28;20434;-57
2023/06/06 12:10:27;;;;;;;1.20;0.70;;;29.60;46.00;;;;;;5087513;28;20429;-58
2023/06/06 12:12:55;;;;;;;0.90;0.80;;;29.70;45.10;;;;;;5090647;28;20438;-55
2023/06/06 12:15:22;;;;;;;1.30;0.80;;;29.40;45.30;;;;;;5093928;28;20489;-57
2023/06/06 12:17:50;;;;;;;1.60;0.80;;;29.00;47.70;;;;;;5107539;28;20434;-57
2023/06/06 12:20:25;;;;;;;1.60;0.80;;;29.10;49.20;;;;;;5091175;28;20430;-57
2023/06/06 12:22:53;;;;;;;1.10;0.80;;;29.10;48.30;;;;;;5091858;28;20417;-57
2023/06/06 12:25:26;;;;;;;1.00;0.90;;;29.00;48.60;;;;;;5091461;28;20741;-67
2023/06/06 12:27:53;;;;;;;2.03;0.90;;;29.40;47.60;;;;;;5090591;28;20461;-67
2023/06/06 12:30:31;;;;;;;1.92;0.77;;;29.50;48.00;;;;;;5091506;28;20422;-67
2023/06/06 12:33:01;;;;;;;1.00;0.80;;;29.80;48.80;;;;;;5090259;28;20433;-66
2023/06/06 12:35:28;;;;;;;1.10;0.80;;;30.40;47.80;;;;;;5088456;28;20988;-66
2023/06/06 12:37:55;;;;;;;1.40;0.90;;;30.60;47.50;;;;;;5091277;28;20838;-67
2023/06/06 12:40:27;;;;;;;1.20;0.82;;;30.60;46.00;;;;;;5089388;28;20711;-68
2023/06/06 12:42:55;;;;;;;1.00;0.80;;;30.20;45.30;;;;;;5090465;28;20462;-68
2023/06/06 12:45:23;;;;;;;1.30;0.80;;;29.50;47.10;;;;;;5091423;28;20460;-66
2023/06/06 12:47:51;;;;;;;2.70;0.90;;;28.30;48.00;;;;;;5091427;28;20422;-69
2023/06/06 12:50:21;;;;;;;1.10;0.90;;;28.30;48.70;;;;;;5090439;28;20422;-68
2023/06/06 12:52:49;;;;;;;0.90;0.80;;;28.60;48.80;;;;;;5091808;28;20931;-68
2023/06/06 12:55:17;;;;;;;1.42;0.90;;;29.00;48.40;;;;;;5090130;28;20445;-66